createdAt,value
2023-01-04T00:02:04.484Z,66.57
2023-01-04T00:04:32.935Z,49.67
2023-01-04T00:07:01.416Z,119.73
2023-01-04T00:09:29.930Z,215.67
2023-01-04T00:11:58.383Z,46.87
2023-01-04T00:14:26.856Z,49.43
2023-01-04T00:16:55.311Z,74.17
2023-01-04T00:19:25.085Z,39.73
2023-01-04T00:21:54.185Z,71.50
2023-01-04T00:24:22.756Z,128.63
2023-01-04T00:26:51.366Z,134.67
2023-01-04T00:29:20.243Z,113.13
2023-01-04T00:31:48.834Z,61.30
2023-01-04T00:34:17.988Z,51.00
2023-01-04T00:36:47.814Z,65.87
2023-01-04T00:39:17.601Z,69.70
2023-01-04T00:41:58.831Z,44.00
2023-01-04T00:44:28.395Z,87.30
2023-01-04T00:46:57.160Z,41.83
2023-01-04T00:49:25.614Z,62.53
2023-01-04T00:51:55.652Z,47.67
2023-01-04T00:54:24.435Z,63.20
2023-01-04T00:56:52.891Z,42.70
2023-01-04T00:59:22.549Z,41.00
2023-01-04T01:01:51.795Z,60.47
2023-01-04T01:04:22.442Z,45.67
2023-01-04T01:06:51.654Z,54.80
2023-01-04T01:09:23.296Z,40.60
2023-01-04T01:11:51.804Z,49.83
2023-01-04T01:14:21.024Z,37.23
2023-01-04T01:16:58.540Z,37.70
2023-01-04T01:19:28.397Z,43.73
2023-01-04T01:21:57.869Z,33.50
2023-01-04T01:24:28.310Z,29.37
2023-01-04T01:26:56.861Z,39.30
2023-01-04T01:29:25.341Z,40.47
2023-01-04T01:31:54.409Z,42.47
2023-01-04T01:34:22.987Z,37.33
2023-01-04T01:36:51.563Z,34.00
2023-01-04T01:39:20.068Z,32.30
2023-01-04T01:41:49.874Z,28.90
2023-01-04T01:44:37.032Z,32.03
2023-01-04T01:47:05.476Z,27.80
2023-01-04T01:49:35.588Z,30.33
2023-01-04T01:52:05.818Z,33.90
2023-01-04T01:54:36.260Z,36.60
2023-01-04T01:57:07.562Z,37.23
2023-01-04T01:59:37.964Z,30.07
2023-01-04T02:02:06.518Z,41.87
2023-01-04T02:04:35.333Z,36.63
2023-01-04T02:07:04.491Z,33.93
2023-01-04T02:09:34.178Z,50.07
2023-01-04T02:12:02.660Z,51.07
2023-01-04T02:14:32.632Z,37.10
2023-01-04T02:17:07.014Z,48.43
2023-01-04T02:20:04.210Z,40.13
2023-01-04T02:22:59.293Z,41.93
2023-01-04T02:25:37.585Z,41.83
2023-01-04T02:28:11.119Z,46.50
2023-01-04T02:31:00.965Z,37.60
2023-01-04T02:33:38.260Z,39.70
2023-01-04T02:36:12.023Z,38.27
2023-01-04T02:38:45.240Z,37.50
2023-01-04T02:41:18.962Z,34.13
2023-01-04T02:44:08.633Z,43.20
2023-01-04T02:46:38.309Z,36.10
2023-01-04T02:49:25.668Z,29.43
2023-01-04T02:51:54.131Z,42.40
2023-01-04T02:54:25.212Z,49.80
2023-01-04T02:57:05.615Z,56.13
2023-01-04T02:59:46.632Z,56.13
2023-01-04T03:02:39.952Z,52.43
2023-01-04T03:05:39.656Z,39.70
2023-01-04T03:08:10.672Z,48.93
2023-01-04T03:10:41.317Z,43.70
2023-01-04T03:13:12.375Z,53.67
2023-01-04T03:15:41.947Z,36.40
2023-01-04T03:18:12.035Z,45.27
2023-01-04T03:20:43.434Z,36.23
2023-01-04T03:23:32.038Z,38.00
2023-01-04T03:26:19.545Z,34.93
2023-01-04T03:29:05.534Z,42.67
2023-01-04T03:31:53.639Z,34.70
2023-01-04T03:34:39.888Z,30.93
2023-01-04T03:37:15.526Z,36.13
2023-01-04T03:40:06.759Z,30.40
2023-01-04T03:42:57.996Z,28.70
2023-01-04T03:45:47.101Z,44.93
2023-01-04T03:48:29.141Z,39.10
2023-01-04T03:51:01.489Z,36.07
2023-01-04T03:53:31.901Z,40.07
2023-01-04T03:56:01.185Z,40.50
2023-01-04T03:58:29.703Z,29.93
2023-01-04T04:01:03.540Z,34.30
2023-01-04T04:03:50.018Z,34.27
2023-01-04T04:06:35.974Z,33.17
2023-01-04T04:09:06.260Z,42.90
2023-01-04T04:11:34.681Z,35.67
2023-01-04T04:14:03.162Z,46.33
2023-01-04T04:16:31.750Z,34.17
2023-01-04T04:19:06.356Z,43.40
2023-01-04T04:21:36.842Z,30.23
2023-01-04T04:24:07.091Z,36.13
2023-01-04T04:26:35.538Z,32.00
2023-01-04T04:29:03.921Z,38.27
2023-01-04T04:31:32.423Z,25.63
2023-01-04T04:34:00.890Z,29.50
2023-01-04T04:36:29.351Z,31.57
2023-01-04T04:38:57.805Z,34.30
2023-01-04T04:41:38.535Z,28.50
2023-01-04T04:44:07.438Z,32.07
2023-01-04T04:46:35.873Z,31.13
2023-01-04T04:49:04.538Z,36.70
2023-01-04T04:51:33.538Z,31.37
2023-01-04T04:54:01.983Z,28.67
2023-01-04T04:56:31.851Z,43.20
2023-01-04T04:59:00.310Z,43.83
2023-01-04T05:01:28.848Z,32.63
2023-01-04T05:03:57.357Z,41.73
2023-01-04T05:06:26.008Z,35.30
2023-01-04T05:08:54.421Z,36.90
2023-01-04T05:11:42.893Z,31.80
2023-01-04T05:14:11.758Z,29.50
2023-01-04T05:16:40.262Z,26.10
2023-01-04T05:19:08.709Z,34.17
2023-01-04T05:21:37.143Z,30.80
2023-01-04T05:24:05.603Z,30.30
2023-01-04T05:26:34.130Z,27.20
2023-01-04T05:29:02.595Z,27.00
2023-01-04T05:31:31.521Z,28.53
2023-01-04T05:33:59.963Z,24.67
2023-01-04T05:36:28.455Z,28.30
2023-01-04T05:38:56.870Z,28.60
2023-01-04T05:41:42.938Z,23.60
2023-01-04T05:44:11.328Z,33.27
2023-01-04T05:46:41.199Z,27.23
2023-01-04T05:49:09.632Z,26.70
2023-01-04T05:51:38.099Z,25.00
2023-01-04T05:54:06.541Z,30.10
2023-01-04T05:56:35.052Z,32.23
2023-01-04T05:59:03.523Z,25.30
2023-01-04T06:01:32.081Z,29.93
2023-01-04T06:04:01.939Z,27.87
2023-01-04T06:06:30.581Z,27.30
2023-01-04T06:08:58.990Z,26.40
2023-01-04T06:11:27.983Z,29.00
2023-01-04T06:13:56.498Z,27.40
2023-01-04T06:16:25.209Z,24.47
2023-01-04T06:18:53.763Z,21.40
2023-01-04T06:21:25.429Z,23.17
2023-01-04T06:23:53.932Z,22.87
2023-01-04T06:26:22.603Z,23.90
2023-01-04T06:28:51.025Z,20.70
2023-01-04T06:31:19.790Z,25.20
2023-01-04T06:33:48.241Z,21.23
2023-01-04T06:36:19.541Z,21.60
2023-01-04T06:38:50.649Z,24.40
2023-01-04T06:41:20.249Z,19.47
2023-01-04T06:43:48.692Z,25.07
2023-01-04T06:46:18.522Z,28.93
2023-01-04T06:48:47.057Z,23.67
2023-01-04T06:51:15.676Z,23.90
2023-01-04T06:53:44.276Z,19.30
2023-01-04T06:56:14.359Z,20.93
2023-01-04T06:58:42.817Z,19.87
2023-01-04T07:01:11.377Z,23.47
2023-01-04T07:03:39.945Z,26.77
2023-01-04T07:06:10.528Z,23.27
2023-01-04T07:08:38.976Z,23.40
2023-01-04T07:11:07.412Z,19.87
2023-01-04T07:13:37.229Z,20.73
2023-01-04T07:16:05.888Z,19.80
2023-01-04T07:18:34.437Z,16.60
2023-01-04T07:21:03.184Z,16.83
2023-01-04T07:23:31.637Z,19.90
2023-01-04T07:26:03.212Z,22.07
2023-01-04T07:28:49.156Z,17.80
2023-01-04T07:31:18.972Z,18.77
2023-01-04T07:33:50.525Z,17.47
2023-01-04T07:47:41.485Z,16.37
2023-01-04T07:50:10.199Z,12.63
2023-01-04T07:52:38.623Z,14.00
2023-01-04T07:55:07.372Z,16.20
2023-01-04T07:57:35.850Z,14.27
2023-01-04T08:00:04.552Z,15.63
2023-01-04T08:02:41.804Z,14.23
2023-01-04T08:05:10.692Z,18.20
2023-01-04T08:07:39.197Z,15.57
2023-01-04T08:10:08.117Z,13.70
2023-01-04T08:12:36.556Z,14.03
2023-01-04T08:15:05.096Z,12.87
2023-01-04T08:17:33.504Z,16.07
2023-01-04T08:20:03.338Z,11.43
2023-01-04T08:22:31.770Z,14.17
2023-01-04T08:25:00.197Z,13.93
2023-01-04T08:27:28.629Z,13.73
2023-01-04T08:29:57.070Z,11.20
2023-01-04T08:32:25.558Z,12.33
2023-01-04T08:34:54.301Z,12.60
2023-01-04T08:37:24.451Z,11.90
2023-01-04T08:39:52.895Z,12.77
2023-01-04T08:42:28.435Z,13.07
2023-01-04T08:45:01.370Z,11.40
2023-01-04T08:47:30.547Z,11.57
2023-01-04T08:50:02.048Z,10.73
2023-01-04T08:52:36.278Z,10.13
2023-01-04T08:55:11.773Z,10.17
2023-01-04T08:57:40.871Z,9.13
2023-01-04T09:00:10.427Z,9.87
2023-01-04T09:02:38.885Z,8.70
2023-01-04T09:05:08.072Z,8.87
2023-01-04T09:07:37.858Z,10.97
2023-01-04T09:10:06.536Z,8.33
2023-01-04T09:12:35.044Z,8.80
2023-01-04T09:15:03.510Z,8.83
2023-01-04T09:17:31.922Z,9.40
2023-01-04T09:20:00.494Z,6.87
2023-01-04T09:22:28.952Z,10.87
2023-01-04T09:24:59.152Z,9.60
2023-01-04T09:27:27.665Z,7.30
2023-01-04T09:29:57.171Z,6.37
2023-01-04T09:32:26.015Z,6.43
2023-01-04T09:34:56.335Z,5.63
2023-01-04T09:37:24.964Z,6.67
2023-01-04T09:39:53.404Z,7.23
2023-01-04T09:42:26.716Z,5.93
2023-01-04T09:47:52.354Z,6.03
2023-01-04T09:50:23.348Z,6.47
2023-01-04T09:52:57.146Z,5.27
2023-01-04T09:55:38.720Z,5.73
2023-01-04T09:58:15.704Z,6.17
2023-01-04T10:00:45.705Z,6.90
2023-01-04T10:03:17.078Z,5.97
2023-01-04T10:05:45.611Z,4.47
2023-01-04T10:08:16.651Z,4.37
2023-01-04T10:10:50.148Z,4.53
2023-01-04T10:13:25.836Z,5.30
2023-01-04T10:15:55.790Z,4.77
2023-01-04T10:21:33.626Z,5.70
2023-01-04T10:24:17.945Z,4.83
2023-01-04T10:26:48.394Z,4.17
2023-01-04T10:29:37.081Z,4.73
2023-01-04T10:32:07.099Z,2.97
2023-01-04T10:34:39.770Z,3.17
2023-01-04T10:37:14.210Z,3.60
2023-01-04T10:39:43.687Z,3.27
2023-01-04T10:42:15.801Z,3.30
2023-01-04T10:44:47.659Z,3.87
2023-01-04T10:47:19.399Z,2.50
2023-01-04T10:49:50.309Z,2.83
2023-01-04T10:52:20.172Z,2.50
2023-01-04T10:54:51.343Z,2.60
2023-01-04T10:57:22.819Z,3.10
2023-01-04T10:59:54.731Z,4.07
2023-01-04T11:02:27.479Z,4.90
2023-01-04T11:04:59.435Z,2.47
2023-01-04T11:07:30.296Z,1.90
2023-01-04T11:10:01.461Z,2.73
2023-01-04T11:12:30.031Z,2.10
2023-01-04T11:14:59.925Z,2.83
2023-01-04T11:17:28.389Z,2.63
2023-01-04T11:19:57.217Z,2.47
2023-01-04T11:22:28.287Z,1.43
2023-01-04T11:27:49.563Z,3.80
2023-01-04T11:30:21.982Z,2.17
2023-01-04T11:32:54.750Z,1.67
2023-01-04T11:35:42.541Z,2.40
2023-01-04T11:38:16.064Z,1.30
2023-01-04T11:40:55.636Z,1.90
2023-01-04T11:43:24.802Z,2.13
2023-01-04T11:45:59.214Z,1.40
2023-01-04T11:48:35.264Z,5.30
2023-01-04T11:51:04.460Z,1.67
2023-01-04T11:53:33.874Z,3.47
2023-01-04T11:56:13.363Z,4.07
2023-01-04T11:58:41.975Z,6.60
2023-01-04T12:01:21.245Z,2.17
2023-01-04T12:03:49.990Z,1.93
2023-01-04T12:06:19.957Z,3.33
2023-01-04T12:08:48.948Z,2.27
2023-01-04T12:11:21.921Z,3.00
2023-01-04T12:13:50.540Z,1.93
2023-01-04T12:16:23.988Z,1.80
2023-01-04T12:18:52.579Z,3.00
2023-01-04T12:21:22.270Z,2.10
2023-01-04T12:23:51.190Z,1.90
2023-01-04T12:26:20.115Z,2.70
2023-01-04T12:28:49.389Z,3.00
2023-01-04T12:31:33.651Z,3.20
2023-01-04T12:34:34.752Z,2.37
2023-01-04T12:37:05.835Z,2.33
2023-01-04T12:39:42.007Z,1.83
2023-01-04T12:42:11.641Z,3.80
2023-01-04T12:44:59.588Z,1.80
2023-01-04T12:47:55.869Z,2.80
2023-01-04T12:50:27.762Z,3.33
2023-01-04T12:53:38.782Z,2.47
2023-01-04T12:55:56.388Z,2.00
2023-01-04T13:01:28.841Z,2.83
2023-01-04T13:04:05.073Z,2.10
2023-01-04T13:06:36.397Z,3.00
2023-01-04T13:09:04.810Z,2.40
2023-01-04T13:11:50.293Z,1.80
2023-01-04T13:14:22.778Z,3.37
2023-01-04T13:16:55.569Z,4.27
2023-01-04T13:19:26.366Z,2.87
2023-01-04T13:21:55.797Z,2.20
2023-01-04T13:24:25.202Z,3.10
2023-01-04T13:26:53.619Z,2.00
2023-01-04T13:29:23.404Z,2.43
2023-01-04T13:31:53.325Z,2.60
2023-01-04T13:34:23.478Z,1.57
2023-01-04T13:36:57.570Z,2.07
2023-01-04T13:39:26.098Z,2.43
2023-01-04T13:41:54.834Z,3.00
2023-01-04T13:45:00.311Z,2.70
2023-01-04T13:47:17.930Z,2.90
2023-01-04T13:49:46.352Z,2.20
2023-01-04T13:52:50.606Z,2.63
2023-01-04T13:55:19.940Z,3.03
2023-01-04T13:57:54.654Z,2.17
2023-01-04T14:00:23.411Z,2.67
2023-01-04T14:03:12.505Z,1.80
2023-01-04T14:05:45.981Z,1.57
2023-01-04T14:08:19.367Z,1.93
2023-01-04T14:10:47.819Z,3.27
2023-01-04T14:13:18.226Z,2.40
2023-01-04T14:15:46.701Z,2.63
2023-01-04T14:18:29.002Z,2.60
2023-01-04T14:20:57.670Z,2.53
2023-01-04T14:23:34.485Z,2.63
2023-01-04T14:26:02.963Z,1.53
2023-01-04T14:28:36.128Z,2.70
2023-01-04T14:31:28.767Z,2.17
2023-01-04T14:33:57.654Z,2.43
2023-01-04T14:36:28.225Z,2.10
2023-01-04T14:39:00.477Z,1.93
2023-01-04T14:41:31.803Z,2.70
2023-01-04T14:44:12.195Z,2.23
2023-01-04T14:46:41.917Z,1.50
2023-01-04T14:49:10.485Z,1.43
2023-01-04T14:51:43.076Z,2.40
2023-01-04T14:54:18.901Z,1.80
2023-01-04T14:56:52.211Z,2.00
2023-01-04T14:59:23.617Z,1.60
2023-01-04T15:01:52.428Z,2.20
2023-01-04T15:04:21.216Z,2.27
2023-01-04T15:06:50.880Z,3.40
2023-01-04T15:09:20.932Z,1.87
2023-01-04T15:11:49.351Z,2.20
2023-01-04T15:14:17.756Z,2.27
2023-01-04T15:16:46.304Z,3.73
2023-01-04T15:19:14.927Z,1.77
2023-01-04T15:21:43.309Z,2.07
2023-01-04T15:24:11.888Z,3.70
2023-01-04T15:26:42.015Z,2.37
2023-01-04T15:29:10.463Z,1.30
2023-01-04T15:31:40.334Z,4.93
2023-01-04T15:34:10.220Z,3.90
2023-01-04T15:36:41.133Z,3.93
2023-01-04T15:39:10.116Z,2.70
2023-01-04T15:41:56.031Z,3.27
2023-01-04T15:44:25.979Z,2.03
2023-01-04T15:46:54.522Z,3.47
2023-01-04T15:49:23.029Z,2.53
2023-01-04T15:51:51.872Z,3.40
2023-01-04T15:54:21.788Z,2.40
2023-01-04T15:56:50.401Z,3.73
2023-01-04T15:59:18.916Z,3.67
2023-01-04T16:01:48.780Z,2.23
2023-01-04T16:04:17.390Z,2.37
2023-01-04T16:06:45.915Z,2.07
2023-01-04T16:09:14.306Z,2.20
2023-01-04T16:12:03.022Z,2.13
2023-01-04T16:14:31.517Z,2.20
2023-01-04T16:17:01.285Z,1.53
2023-01-04T16:19:32.283Z,2.63
2023-01-04T16:22:00.615Z,3.50
2023-01-04T16:25:08.814Z,4.50
2023-01-04T16:27:17.457Z,4.33
2023-01-04T16:29:45.898Z,3.07
2023-01-04T16:32:15.647Z,2.23
2023-01-04T16:34:44.088Z,4.07
2023-01-04T16:37:12.596Z,2.43
2023-01-04T16:42:29.397Z,4.77
2023-01-04T16:44:58.865Z,4.53
2023-01-04T16:47:28.691Z,3.10
2023-01-04T16:49:57.127Z,2.93
2023-01-04T16:52:27.315Z,4.13
2023-01-04T16:54:55.818Z,2.93
2023-01-04T16:57:24.814Z,3.87
2023-01-04T16:59:53.226Z,3.07
2023-01-04T17:02:23.114Z,3.67
2023-01-04T17:04:57.089Z,3.23
2023-01-04T17:07:27.377Z,4.67
2023-01-04T17:09:55.787Z,4.23
2023-01-04T17:18:01.514Z,2.80
2023-01-04T17:20:31.264Z,2.90
2023-01-04T17:22:59.639Z,4.47
2023-01-04T17:25:28.027Z,3.67
2023-01-04T17:27:56.519Z,4.87
2023-01-04T17:30:25.143Z,3.33
2023-01-04T17:32:53.598Z,3.03
2023-01-04T17:35:22.082Z,4.23
2023-01-04T17:37:51.801Z,3.67
2023-01-04T17:40:23.287Z,6.00
2023-01-04T17:42:51.947Z,4.40
2023-01-04T17:45:20.452Z,5.63
2023-01-04T17:47:48.966Z,3.30
2023-01-04T17:50:18.201Z,4.07
2023-01-04T17:52:47.535Z,3.70
2023-01-04T17:55:17.539Z,2.60
2023-01-04T17:57:46.150Z,3.57
2023-01-04T18:00:15.133Z,3.00
2023-01-04T18:02:43.754Z,4.50
2023-01-04T18:05:12.597Z,4.37
2023-01-04T18:07:40.947Z,3.67
2023-01-04T18:10:20.685Z,5.33
2023-01-04T18:12:56.643Z,3.70
2023-01-04T18:15:25.117Z,4.60
2023-01-04T18:17:53.502Z,4.17
2023-01-04T18:20:25.089Z,4.93
2023-01-04T18:22:53.830Z,3.70
2023-01-04T18:25:22.290Z,3.50
2023-01-04T18:27:50.729Z,3.67
2023-01-04T18:30:23.272Z,3.17
2023-01-04T18:32:51.938Z,3.97
2023-01-04T18:35:20.341Z,4.97
2023-01-04T18:37:48.763Z,3.50
2023-01-04T18:40:17.205Z,3.17
2023-01-04T18:42:49.055Z,3.80
2023-01-04T18:45:17.537Z,5.70
2023-01-04T18:47:48.092Z,3.87
2023-01-04T18:50:16.593Z,4.20
2023-01-04T18:52:45.183Z,3.60
2023-01-04T18:55:13.680Z,3.87
2023-01-04T18:57:42.075Z,3.17
2023-01-04T19:00:11.431Z,5.20
2023-01-04T19:02:40.356Z,3.57
2023-01-04T19:05:11.584Z,4.40
2023-01-04T19:07:40.514Z,4.30
2023-01-04T19:10:09.486Z,4.77
2023-01-04T19:12:38.949Z,3.50
2023-01-04T19:15:08.568Z,3.20
2023-01-04T19:17:36.980Z,3.63
2023-01-04T19:20:05.534Z,3.63
2023-01-04T19:22:35.849Z,4.80
2023-01-04T19:25:04.323Z,4.50
2023-01-04T19:27:32.825Z,2.97
2023-01-04T19:30:01.398Z,4.50
2023-01-04T19:32:33.336Z,4.40
2023-01-04T19:35:02.463Z,2.20
2023-01-04T19:37:31.179Z,2.67
2023-01-04T19:40:01.185Z,2.20
2023-01-04T19:42:29.594Z,3.70
2023-01-04T19:44:58.018Z,3.07
2023-01-04T19:47:26.425Z,2.37
2023-01-04T19:49:54.827Z,2.23
2023-01-04T19:52:23.272Z,2.17
2023-01-04T19:54:51.654Z,3.40
2023-01-04T19:57:21.385Z,2.10
2023-01-04T19:59:49.841Z,1.60
2023-01-04T20:02:18.657Z,3.37
2023-01-04T20:04:47.178Z,2.67
2023-01-04T20:07:15.590Z,2.83
2023-01-04T20:09:44.085Z,1.77
2023-01-04T20:12:12.513Z,2.40
2023-01-04T20:14:42.282Z,2.97
2023-01-04T20:17:10.745Z,1.80
2023-01-04T20:19:39.239Z,2.97
2023-01-04T20:22:07.727Z,5.53
2023-01-04T20:24:36.142Z,3.73
2023-01-04T20:27:04.549Z,1.47
2023-01-04T20:29:33.340Z,2.10
2023-01-04T20:32:03.935Z,1.90
2023-01-04T20:34:32.429Z,2.03
2023-01-04T20:37:01.237Z,3.30
2023-01-04T20:39:29.763Z,1.47
2023-01-04T20:42:15.989Z,2.80
2023-01-04T20:44:44.397Z,1.27
2023-01-04T20:47:14.207Z,1.97
2023-01-04T20:49:42.604Z,2.67
2023-01-04T20:52:11.038Z,1.57
2023-01-04T20:54:39.569Z,2.83
2023-01-04T20:57:07.967Z,1.63
2023-01-04T20:59:36.418Z,2.47
2023-01-04T21:02:05.296Z,2.97
2023-01-04T21:04:35.303Z,2.00
2023-01-04T21:07:03.743Z,1.80
2023-01-04T21:09:32.273Z,2.70
2023-01-04T21:12:04.913Z,3.10
2023-01-04T21:14:38.152Z,2.13
2023-01-04T21:17:06.810Z,1.27
2023-01-04T21:19:36.607Z,1.63
2023-01-04T21:22:05.098Z,1.70
2023-01-04T21:24:34.092Z,3.80
2023-01-04T21:27:02.754Z,1.43
2023-01-04T21:29:31.340Z,2.40
2023-01-04T21:31:59.806Z,1.67
2023-01-04T21:34:31.455Z,1.93
2023-01-04T21:37:01.351Z,1.73
2023-01-04T21:39:29.808Z,1.57
2023-01-04T21:41:58.251Z,1.40
2023-01-04T21:44:26.716Z,1.30
2023-01-04T21:46:55.399Z,1.20
2023-01-04T21:49:23.869Z,1.40
2023-01-04T21:51:52.269Z,1.33
2023-01-04T21:54:22.147Z,2.23
2023-01-04T21:56:50.609Z,2.13
2023-01-04T21:59:19.331Z,2.00
2023-01-04T22:01:47.888Z,1.73
2023-01-04T22:04:16.448Z,1.83
2023-01-04T22:06:44.924Z,1.20
2023-01-04T22:09:13.329Z,1.40
2023-01-04T22:11:43.450Z,1.60
2023-01-04T22:14:11.864Z,1.60
2023-01-04T22:16:40.782Z,1.10
2023-01-04T22:19:09.500Z,2.03
2023-01-04T22:21:37.916Z,2.90
2023-01-04T22:24:06.682Z,1.63
2023-01-04T22:26:35.585Z,1.70
2023-01-04T22:29:05.414Z,1.13
2023-01-04T22:31:33.905Z,1.60
2023-01-04T22:34:02.414Z,2.53
2023-01-04T22:36:30.886Z,1.87
2023-01-04T22:38:59.653Z,2.13
2023-01-04T22:41:28.761Z,2.83
2023-01-04T22:43:57.718Z,3.23
2023-01-04T22:46:28.585Z,1.30
2023-01-04T22:48:57.556Z,1.50
2023-01-04T22:51:27.519Z,3.53
2023-01-04T22:53:56.708Z,1.80
2023-01-04T22:56:25.163Z,1.37
2023-01-04T22:58:55.705Z,2.20
2023-01-04T23:01:24.788Z,1.83
2023-01-04T23:03:55.021Z,2.70
2023-01-04T23:06:24.202Z,1.37
2023-01-04T23:08:56.913Z,1.50
2023-01-04T23:11:25.370Z,1.40
2023-01-04T23:13:53.907Z,1.63
2023-01-04T23:16:27.754Z,1.47
2023-01-04T23:18:59.626Z,1.10
2023-01-04T23:21:28.011Z,1.10
2023-01-04T23:23:56.458Z,2.70
2023-01-04T23:26:25.409Z,1.13
2023-01-04T23:28:54.240Z,0.90
2023-01-04T23:31:24.197Z,2.03
2023-01-04T23:33:53.915Z,1.70
2023-01-04T23:36:25.254Z,1.17
2023-01-04T23:38:54.454Z,1.53
2023-01-04T23:41:42.888Z,2.27
2023-01-04T23:44:12.579Z,1.70
2023-01-04T23:46:41.648Z,1.10
2023-01-04T23:49:10.260Z,1.20
2023-01-04T23:51:40.033Z,1.73
2023-01-04T23:54:09.028Z,2.40
2023-01-04T23:56:37.811Z,1.13
2023-01-04T23:59:06.225Z,1.50
